Time;durP1;ratioP1;P1;durP2;ratioP2;P2;SDS_P1;SDS_P2;PMS_P1;PMS_P2;Temp;Humidity;BMP_temperature;BMP_pressure;BME280_temperature;BME280_humidity;BME280_pressure;Samples;Min_cycle;Max_cycle;Signal;HPM_P1;HPM_P2
2021/09/16 00:00:08;;;;;;;1.85;0.60;;;15.00;99.90;;;;;;6155663;23;20100;-65
2021/09/16 00:02:33;;;;;;;3.72;0.70;;;15.00;99.90;;;;;;6153865;23;20021;-65
2021/09/16 00:04:59;;;;;;;3.10;0.65;;;15.00;99.90;;;;;;6182548;23;20438;-65
2021/09/16 00:07:24;;;;;;;6.30;1.02;;;15.10;99.90;;;;;;6182382;23;20039;-65
2021/09/16 00:09:50;;;;;;;6.25;0.88;;;15.10;99.90;;;;;;6181231;23;20016;-65
2021/09/16 00:12:16;;;;;;;5.63;0.82;;;15.10;99.90;;;;;;6181294;23;20083;-65
2021/09/16 00:14:41;;;;;;;4.32;0.80;;;15.20;99.90;;;;;;6182131;23;20076;-65
2021/09/16 00:17:07;;;;;;;3.88;0.60;;;15.20;99.90;;;;;;6155320;23;20071;-65
2021/09/16 00:19:33;;;;;;;5.10;0.80;;;15.20;99.90;;;;;;6182328;23;20029;-65
2021/09/16 00:21:59;;;;;;;4.40;0.65;;;15.20;99.90;;;;;;6154778;23;20025;-65
2021/09/16 00:24:24;;;;;;;3.65;0.63;;;15.20;99.90;;;;;;6182830;23;20049;-65
2021/09/16 00:26:50;;;;;;;3.10;0.70;;;15.20;99.90;;;;;;6181353;23;20088;-65
2021/09/16 00:29:15;;;;;;;4.93;0.93;;;15.20;99.90;;;;;;6156260;23;20418;-65
2021/09/16 00:31:41;;;;;;;2.55;0.68;;;15.10;99.90;;;;;;6180655;23;20013;-65
2021/09/16 00:34:06;;;;;;;4.05;0.80;;;15.10;99.90;;;;;;6182825;23;20024;-65
2021/09/16 00:36:32;;;;;;;2.50;0.60;;;15.10;99.90;;;;;;6181791;23;20019;-65
2021/09/16 00:38:58;;;;;;;3.25;0.90;;;15.00;99.90;;;;;;6185006;23;20017;-65
2021/09/16 00:41:25;;;;;;;6.22;0.88;;;15.00;99.90;;;;;;6132118;23;20021;-66
2021/09/16 00:43:50;;;;;;;3.50;0.68;;;15.00;99.90;;;;;;6157168;23;20040;-65
2021/09/16 00:46:16;;;;;;;3.20;0.68;;;14.90;99.90;;;;;;6183259;23;20421;-65
2021/09/16 00:48:42;;;;;;;4.13;0.65;;;14.80;99.90;;;;;;6184946;23;20068;-65
2021/09/16 00:51:07;;;;;;;3.25;1.00;;;14.80;99.90;;;;;;6183677;23;20039;-66
2021/09/16 00:53:33;;;;;;;4.53;1.20;;;14.70;99.90;;;;;;6184559;23;20041;-65
2021/09/16 00:56:00;;;;;;;3.15;0.75;;;14.70;99.90;;;;;;6156156;23;20626;-65
2021/09/16 00:58:28;;;;;;;3.55;0.80;;;14.70;99.90;;;;;;6183436;23;20395;-65
2021/09/16 01:00:55;;;;;;;5.45;1.02;;;14.60;99.90;;;;;;6183468;23;20009;-65
2021/09/16 01:03:22;;;;;;;4.32;0.93;;;14.60;99.90;;;;;;6157018;23;20021;-66
2021/09/16 01:05:50;;;;;;;3.65;0.80;;;14.60;99.90;;;;;;6182760;23;20012;-65
2021/09/16 01:08:16;;;;;;;4.45;0.80;;;14.60;99.90;;;;;;6182837;23;20039;-65
2021/09/16 01:10:41;;;;;;;3.20;0.70;;;14.60;99.90;;;;;;6182830;23;20349;-65
2021/09/16 01:13:10;;;;;;;3.83;0.82;;;14.70;99.90;;;;;;6156387;23;20103;-65
2021/09/16 01:15:36;;;;;;;4.78;0.90;;;14.60;99.90;;;;;;6155811;23;20016;-65
2021/09/16 01:18:02;;;;;;;3.15;0.70;;;14.70;99.90;;;;;;6183709;23;20449;-65
2021/09/16 01:20:28;;;;;;;3.58;0.80;;;14.70;99.90;;;;;;6182749;23;20519;-65
2021/09/16 01:22:54;;;;;;;2.45;0.80;;;14.70;99.90;;;;;;6183773;23;20021;-65
2021/09/16 01:25:27;;;;;;;4.15;0.95;;;14.80;99.90;;;;;;6182787;23;20009;-65
2021/09/16 01:27:54;;;;;;;2.65;0.93;;;14.80;99.90;;;;;;6183789;23;20715;-65
2021/09/16 01:30:20;;;;;;;7.28;1.10;;;14.80;99.90;;;;;;6183016;23;20005;-65
2021/09/16 01:32:48;;;;;;;3.65;0.90;;;14.90;99.90;;;;;;6183137;23;20471;-65
2021/09/16 01:35:13;;;;;;;4.03;0.93;;;14.90;99.90;;;;;;6156948;23;20005;-65
2021/09/16 01:37:39;;;;;;;2.83;1.00;;;14.90;99.90;;;;;;6182605;23;20093;-66
2021/09/16 01:40:05;;;;;;;3.63;1.02;;;14.90;99.90;;;;;;6183287;23;20009;-65
2021/09/16 01:42:31;;;;;;;5.47;1.08;;;15.00;99.90;;;;;;6183479;23;20084;-65
2021/09/16 01:44:56;;;;;;;4.22;1.02;;;15.10;99.90;;;;;;6182243;23;20094;-65
2021/09/16 01:47:22;;;;;;;4.65;1.05;;;15.10;99.90;;;;;;6183668;23;20108;-65
2021/09/16 01:49:47;;;;;;;4.20;0.95;;;15.10;99.90;;;;;;6183486;23;20013;-65
2021/09/16 01:52:13;;;;;;;3.75;1.00;;;15.10;99.90;;;;;;6156526;23;20105;-66
2021/09/16 01:54:38;;;;;;;4.55;1.23;;;15.10;99.90;;;;;;6183651;23;20016;-65
2021/09/16 01:57:04;;;;;;;3.65;0.95;;;15.10;99.90;;;;;;6183579;23;20383;-65
2021/09/16 01:59:30;;;;;;;3.72;1.00;;;15.20;99.90;;;;;;6156840;23;20445;-65
2021/09/16 02:01:55;;;;;;;3.67;0.90;;;15.20;99.90;;;;;;6183653;23;20059;-65
2021/09/16 02:04:21;;;;;;;6.15;1.45;;;15.20;99.90;;;;;;6182529;23;20043;-65
2021/09/16 02:06:47;;;;;;;6.22;1.25;;;15.20;99.90;;;;;;6184150;23;20374;-65
2021/09/16 02:09:12;;;;;;;6.80;1.30;;;15.20;99.90;;;;;;6182741;23;20325;-65
2021/09/16 02:11:38;;;;;;;5.93;1.73;;;15.20;99.90;;;;;;6183767;23;20088;-65
2021/09/16 02:14:03;;;;;;;6.10;1.10;;;15.30;99.90;;;;;;6182105;23;20055;-65
2021/09/16 02:16:29;;;;;;;4.22;1.25;;;15.30;99.90;;;;;;6183632;23;20009;-65
2021/09/16 02:18:54;;;;;;;6.28;1.35;;;15.30;99.90;;;;;;6156151;23;20020;-65
2021/09/16 02:21:20;;;;;;;5.35;1.35;;;15.30;99.90;;;;;;6183458;23;20021;-65
2021/09/16 02:23:45;;;;;;;6.10;1.30;;;15.30;99.90;;;;;;6131491;23;20768;-65
2021/09/16 02:26:11;;;;;;;6.78;1.30;;;15.40;99.90;;;;;;6156927;23;20025;-65
2021/09/16 02:28:36;;;;;;;5.13;1.30;;;15.30;99.90;;;;;;6182333;23;20027;-65
2021/09/16 02:31:02;;;;;;;7.10;1.08;;;15.30;99.90;;;;;;6183383;23;20020;-65
2021/09/16 02:33:29;;;;;;;4.90;1.13;;;15.30;99.90;;;;;;6181791;23;20021;-65
2021/09/16 02:35:54;;;;;;;6.80;1.60;;;15.30;99.90;;;;;;6183203;23;20013;-65
2021/09/16 02:38:20;;;;;;;6.75;1.50;;;15.30;99.90;;;;;;6181890;23;20038;-65
2021/09/16 02:40:46;;;;;;;2.60;0.88;;;15.30;99.90;;;;;;6156766;23;20016;-65
2021/09/16 02:43:12;;;;;;;4.32;1.30;;;15.30;99.90;;;;;;6155464;23;20032;-65
2021/09/16 02:45:37;;;;;;;4.93;1.17;;;15.40;99.90;;;;;;6183265;23;20015;-65
2021/09/16 02:48:03;;;;;;;3.28;1.00;;;15.30;99.90;;;;;;6156142;23;20024;-65
2021/09/16 02:50:28;;;;;;;3.85;1.20;;;15.40;99.90;;;;;;6183457;23;20017;-65
2021/09/16 02:52:54;;;;;;;5.60;1.15;;;15.40;99.90;;;;;;6182586;23;20738;-65
2021/09/16 02:55:19;;;;;;;5.20;1.33;;;15.40;99.90;;;;;;6156158;23;20483;-65
2021/09/16 02:57:46;;;;;;;5.50;1.27;;;15.40;99.90;;;;;;6182531;23;20020;-65
2021/09/16 03:00:12;;;;;;;4.25;1.40;;;15.30;99.90;;;;;;6180527;23;20087;-65
2021/09/16 03:02:38;;;;;;;4.72;2.17;;;15.30;99.90;;;;;;6182308;23;20332;-65
2021/09/16 03:05:04;;;;;;;6.30;1.77;;;15.40;99.90;;;;;;6183119;23;20017;-65
2021/09/16 03:07:29;;;;;;;4.97;1.73;;;15.30;99.90;;;;;;6155614;23;20083;-65
2021/09/16 03:09:55;;;;;;;3.67;1.67;;;15.30;99.90;;;;;;6182453;23;20041;-64
2021/09/16 03:12:20;;;;;;;4.60;1.70;;;15.40;99.90;;;;;;6182574;23;20365;-65
2021/09/16 03:14:46;;;;;;;5.28;2.05;;;15.40;99.90;;;;;;6182137;23;20552;-65
2021/09/16 03:17:11;;;;;;;3.65;1.92;;;15.30;99.90;;;;;;6182446;23;20443;-65
2021/09/16 03:19:37;;;;;;;3.92;1.73;;;15.30;99.90;;;;;;6182655;23;20424;-65
2021/09/16 03:22:03;;;;;;;3.88;1.80;;;15.40;99.90;;;;;;6182526;23;20115;-65
2021/09/16 03:24:29;;;;;;;3.70;1.83;;;15.40;99.90;;;;;;6182386;23;20013;-65
2021/09/16 03:26:54;;;;;;;3.85;2.10;;;15.30;99.90;;;;;;6156352;23;20425;-65
2021/09/16 03:29:20;;;;;;;4.65;2.40;;;15.30;99.90;;;;;;6155938;23;20021;-65
2021/09/16 03:31:45;;;;;;;6.10;2.28;;;15.40;99.90;;;;;;6182621;23;20076;-65
2021/09/16 03:34:11;;;;;;;3.95;2.63;;;15.40;99.90;;;;;;6182842;23;20121;-64
2021/09/16 03:36:37;;;;;;;5.25;2.72;;;15.40;99.90;;;;;;6163447;23;20453;-71
2021/09/16 03:39:03;;;;;;;4.22;2.30;;;15.40;99.90;;;;;;6125019;23;20018;-71
2021/09/16 03:41:28;;;;;;;6.03;2.55;;;15.40;99.90;;;;;;6152019;23;20530;-71
2021/09/16 03:43:54;;;;;;;5.05;2.65;;;15.40;99.90;;;;;;6125242;23;20024;-72
2021/09/16 03:46:19;;;;;;;8.50;2.85;;;15.40;99.90;;;;;;6125662;23;20025;-71
2021/09/16 03:48:45;;;;;;;6.55;2.67;;;15.40;99.90;;;;;;6123623;23;20181;-72
2021/09/16 03:51:11;;;;;;;6.90;3.10;;;15.40;99.90;;;;;;6125760;23;20068;-72
2021/09/16 03:53:37;;;;;;;5.32;3.00;;;15.40;99.90;;;;;;6099960;23;20014;-71
2021/09/16 03:56:03;;;;;;;3.97;2.72;;;15.40;99.90;;;;;;6125863;23;20032;-71
2021/09/16 03:58:28;;;;;;;6.07;2.70;;;15.40;99.90;;;;;;6124282;23;20056;-71
2021/09/16 04:00:54;;;;;;;6.13;2.97;;;15.40;99.90;;;;;;6124887;23;20021;-71
2021/09/16 04:03:19;;;;;;;4.10;2.83;;;15.40;99.90;;;;;;6123964;23;20072;-71
2021/09/16 04:05:45;;;;;;;6.20;2.95;;;15.40;99.90;;;;;;6126312;23;20029;-72
2021/09/16 04:08:10;;;;;;;4.50;3.40;;;15.40;99.90;;;;;;6124325;23;20433;-71
2021/09/16 04:10:36;;;;;;;6.18;3.20;;;15.40;99.90;;;;;;6125247;23;20324;-71
2021/09/16 04:13:02;;;;;;;3.97;2.80;;;15.40;99.90;;;;;;6101138;23;20052;-71
2021/09/16 04:15:28;;;;;;;6.40;3.38;;;15.40;99.90;;;;;;6125731;23;20088;-71
2021/09/16 04:17:53;;;;;;;6.75;2.90;;;15.40;99.90;;;;;;6153133;23;20013;-71
2021/09/16 04:20:19;;;;;;;4.75;2.83;;;15.30;99.90;;;;;;6126472;23;20018;-71
2021/09/16 04:22:45;;;;;;;5.55;3.17;;;15.40;99.90;;;;;;6126768;23;20104;-71
2021/09/16 04:25:10;;;;;;;6.38;3.17;;;15.40;99.90;;;;;;6126832;23;20106;-71
2021/09/16 04:27:36;;;;;;;8.27;3.83;;;15.40;99.90;;;;;;6126392;23;20097;-71
2021/09/16 04:30:02;;;;;;;6.65;3.38;;;15.40;99.90;;;;;;6126023;23;20018;-71
2021/09/16 04:32:28;;;;;;;4.85;3.42;;;15.40;99.90;;;;;;6126510;23;20456;-71
2021/09/16 04:34:54;;;;;;;6.50;3.78;;;15.40;99.90;;;;;;6126591;23;20421;-72
2021/09/16 04:37:19;;;;;;;7.65;3.63;;;15.40;99.90;;;;;;6143383;23;20017;-72
2021/09/16 04:39:45;;;;;;;6.85;3.80;;;15.40;99.90;;;;;;6152299;23;20033;-72
2021/09/16 04:42:10;;;;;;;8.73;3.88;;;15.40;99.90;;;;;;6125651;23;20112;-71
2021/09/16 04:44:36;;;;;;;5.45;3.75;;;15.40;99.90;;;;;;6152090;23;20520;-71
2021/09/16 04:47:02;;;;;;;11.13;3.90;;;15.40;99.90;;;;;;6152801;23;20009;-72
2021/09/16 04:49:28;;;;;;;6.93;4.05;;;15.40;99.90;;;;;;6151054;23;20037;-71
2021/09/16 04:51:54;;;;;;;6.05;3.45;;;15.40;99.90;;;;;;6152491;23;20072;-71
2021/09/16 04:54:20;;;;;;;5.40;3.60;;;15.40;99.90;;;;;;6151017;23;20018;-71
2021/09/16 04:56:45;;;;;;;5.65;3.67;;;15.40;99.90;;;;;;6150195;23;20032;-71
2021/09/16 04:59:12;;;;;;;8.25;4.45;;;15.40;99.90;;;;;;6151806;23;20021;-71
2021/09/16 05:01:38;;;;;;;8.90;4.60;;;15.40;99.90;;;;;;6150954;23;20048;-71
2021/09/16 05:04:04;;;;;;;8.13;4.60;;;15.40;99.90;;;;;;6151181;23;20009;-71
2021/09/16 05:06:29;;;;;;;7.72;4.90;;;15.40;99.90;;;;;;6151953;23;20040;-71
2021/09/16 05:08:55;;;;;;;6.85;4.93;;;15.40;99.90;;;;;;6150163;23;20528;-71
2021/09/16 05:11:21;;;;;;;9.93;5.40;;;15.40;99.90;;;;;;6150114;23;20017;-72
2021/09/16 05:13:46;;;;;;;7.97;5.00;;;15.40;99.90;;;;;;6126298;23;20021;-72
2021/09/16 05:16:12;;;;;;;8.90;4.72;;;15.40;99.90;;;;;;6150564;23;20495;-72
2021/09/16 05:18:37;;;;;;;9.82;5.75;;;15.40;99.90;;;;;;6152394;23;20509;-71
2021/09/16 05:21:03;;;;;;;7.25;4.95;;;15.40;99.90;;;;;;6150124;23;20368;-71
2021/09/16 05:23:28;;;;;;;11.02;5.53;;;15.40;99.90;;;;;;6150772;23;20473;-71
2021/09/16 05:25:54;;;;;;;10.13;5.35;;;15.50;99.90;;;;;;6149136;23;20393;-71
2021/09/16 05:28:19;;;;;;;13.57;5.38;;;15.50;99.90;;;;;;6125929;23;20017;-72
2021/09/16 05:30:45;;;;;;;7.32;5.25;;;15.50;99.90;;;;;;6151791;23;20021;-72
2021/09/16 05:33:10;;;;;;;7.97;4.63;;;15.50;99.90;;;;;;6151265;23;20610;-71
2021/09/16 05:35:37;;;;;;;12.43;5.72;;;15.50;99.90;;;;;;6152504;23;20377;-71
2021/09/16 05:38:04;;;;;;;6.53;4.38;;;15.50;99.90;;;;;;6102780;23;20511;-72
2021/09/16 05:40:30;;;;;;;9.65;4.88;;;15.50;99.90;;;;;;6126074;23;20471;-72
2021/09/16 05:42:56;;;;;;;11.45;5.30;;;15.50;99.90;;;;;;6126986;23;20017;-72
2021/09/16 05:45:21;;;;;;;10.52;5.32;;;15.50;99.90;;;;;;6125937;23;20421;-72
2021/09/16 05:47:47;;;;;;;10.98;5.05;;;15.50;99.90;;;;;;6152849;23;20349;-72
2021/09/16 05:50:13;;;;;;;11.85;5.38;;;15.50;99.90;;;;;;6151909;23;20334;-72
2021/09/16 05:52:38;;;;;;;11.43;6.15;;;15.50;99.90;;;;;;6126822;23;20013;-72
2021/09/16 05:55:05;;;;;;;6.97;4.43;;;15.60;99.90;;;;;;6101506;23;20018;-73
2021/09/16 05:57:31;;;;;;;8.77;5.00;;;15.60;99.90;;;;;;6126602;23;20017;-72
2021/09/16 05:59:56;;;;;;;14.27;5.45;;;15.60;99.90;;;;;;6126064;23;20022;-72
2021/09/16 06:02:22;;;;;;;12.68;4.85;;;15.60;99.90;;;;;;6127122;23;20549;-73
2021/09/16 06:04:47;;;;;;;11.35;4.28;;;15.60;99.90;;;;;;6125510;23;20009;-72
2021/09/16 06:07:13;;;;;;;8.98;5.25;;;15.60;99.90;;;;;;6102039;23;20017;-71
2021/09/16 06:09:39;;;;;;;9.15;5.30;;;15.60;99.90;;;;;;6125301;23;20021;-72
2021/09/16 06:12:07;;;;;;;10.93;5.38;;;15.70;99.90;;;;;;6152836;23;20016;-72
2021/09/16 06:14:32;;;;;;;12.82;5.15;;;15.70;99.90;;;;;;6100336;23;20020;-72
2021/09/16 06:16:59;;;;;;;8.40;4.28;;;15.70;99.90;;;;;;6125879;23;20013;-72
2021/09/16 06:19:24;;;;;;;11.80;4.78;;;15.80;99.90;;;;;;6125681;23;20013;-72
2021/09/16 06:21:50;;;;;;;8.10;4.38;;;15.80;99.90;;;;;;6126139;23;20112;-72
2021/09/16 06:24:15;;;;;;;11.23;4.40;;;15.90;99.90;;;;;;6125765;23;20068;-72
2021/09/16 06:26:41;;;;;;;8.05;4.75;;;15.90;99.90;;;;;;6126472;23;20670;-72
2021/09/16 06:29:07;;;;;;;10.82;4.40;;;15.90;99.90;;;;;;6124035;23;20067;-72
2021/09/16 06:31:32;;;;;;;9.13;4.72;;;15.90;99.90;;;;;;6101703;23;20018;-72
2021/09/16 06:33:58;;;;;;;7.28;4.18;;;16.00;99.90;;;;;;6151706;23;20092;-72
2021/09/16 06:36:23;;;;;;;8.10;3.83;;;16.00;99.90;;;;;;6133470;23;20511;-71
2021/09/16 06:38:49;;;;;;;8.10;4.75;;;16.10;99.90;;;;;;6149648;23;20026;-71
2021/09/16 06:41:14;;;;;;;8.38;4.03;;;16.00;99.90;;;;;;6126255;23;20032;-71
2021/09/16 06:43:40;;;;;;;8.73;4.47;;;16.10;99.90;;;;;;6125557;23;20017;-63
2021/09/16 06:46:05;;;;;;;9.93;4.25;;;16.10;99.90;;;;;;6152865;23;20047;-64
2021/09/16 06:48:31;;;;;;;7.93;4.13;;;16.10;99.90;;;;;;6150349;23;20021;-63
2021/09/16 06:50:57;;;;;;;7.28;3.85;;;16.10;99.90;;;;;;6153036;23;20334;-64
2021/09/16 06:53:23;;;;;;;7.80;4.10;;;16.10;99.90;;;;;;6152320;23;20068;-64
2021/09/16 06:55:48;;;;;;;9.10;3.70;;;16.10;99.90;;;;;;6150890;23;20017;-63
2021/09/16 06:58:14;;;;;;;7.20;3.70;;;16.10;99.90;;;;;;6151776;23;20023;-63
2021/09/16 07:00:40;;;;;;;10.65;3.45;;;16.20;99.90;;;;;;6152982;23;20089;-64
2021/09/16 07:03:06;;;;;;;6.93;3.25;;;16.20;99.90;;;;;;6151799;23;20036;-64
2021/09/16 07:05:31;;;;;;;9.85;4.05;;;16.30;99.90;;;;;;6150901;23;20021;-64
2021/09/16 07:07:57;;;;;;;12.25;4.38;;;16.30;99.90;;;;;;6151811;23;20022;-64
2021/09/16 07:10:22;;;;;;;13.10;3.75;;;16.40;99.90;;;;;;6150870;23;20010;-63
2021/09/16 07:12:48;;;;;;;8.07;3.63;;;16.40;99.90;;;;;;6151834;23;20088;-63
2021/09/16 07:15:13;;;;;;;9.10;3.60;;;16.40;99.90;;;;;;6152562;23;20020;-64
2021/09/16 07:17:39;;;;;;;9.73;3.55;;;16.50;99.90;;;;;;6150476;23;20041;-64
2021/09/16 07:20:06;;;;;;;5.90;3.30;;;16.50;99.90;;;;;;6149996;23;20357;-63
2021/09/16 07:22:31;;;;;;;9.57;3.70;;;16.50;99.90;;;;;;6151314;23;20093;-64
2021/09/16 07:24:57;;;;;;;9.45;3.90;;;16.60;99.90;;;;;;6152216;23;20052;-64
2021/09/16 07:27:22;;;;;;;9.75;3.75;;;16.60;99.90;;;;;;6149485;23;20024;-64
2021/09/16 07:29:48;;;;;;;9.30;3.70;;;16.70;99.90;;;;;;6147671;23;20022;-64
2021/09/16 07:32:14;;;;;;;7.47;3.33;;;16.80;99.90;;;;;;6149353;23;20076;-64
2021/09/16 07:34:39;;;;;;;9.75;3.45;;;16.80;99.90;;;;;;6150259;23;20017;-64
2021/09/16 07:37:06;;;;;;;7.35;3.15;;;16.80;99.90;;;;;;6147424;23;20457;-64
2021/09/16 07:39:31;;;;;;;7.18;3.13;;;16.80;99.90;;;;;;6150501;23;20353;-64
2021/09/16 07:41:57;;;;;;;8.98;3.40;;;16.80;99.90;;;;;;6122241;23;20022;-64
2021/09/16 07:44:22;;;;;;;7.97;3.40;;;16.90;99.90;;;;;;6151478;23;20010;-64
2021/09/16 07:46:48;;;;;;;8.23;3.03;;;17.00;99.90;;;;;;6150941;23;20021;-64
2021/09/16 07:49:14;;;;;;;5.70;3.00;;;17.00;99.90;;;;;;6151275;23;20009;-64
2021/09/16 07:51:39;;;;;;;7.63;3.38;;;17.00;99.90;;;;;;6151020;23;20017;-64
2021/09/16 07:54:06;;;;;;;10.68;3.50;;;17.10;99.90;;;;;;6152521;23;20025;-64
2021/09/16 07:56:32;;;;;;;4.72;3.03;;;17.20;99.90;;;;;;6151079;23;20087;-64
2021/09/16 07:58:57;;;;;;;9.13;3.00;;;17.40;99.90;;;;;;6153202;23;20045;-64
2021/09/16 08:01:24;;;;;;;9.95;3.58;;;17.50;99.90;;;;;;6149668;23;20436;-64
2021/09/16 08:03:50;;;;;;;9.80;3.38;;;17.50;99.90;;;;;;6152054;23;20516;-64
2021/09/16 08:06:17;;;;;;;7.10;2.88;;;17.50;99.90;;;;;;6149785;23;20017;-64
2021/09/16 08:08:42;;;;;;;6.35;2.70;;;17.60;99.90;;;;;;6152437;23;20016;-64
2021/09/16 08:11:08;;;;;;;5.97;2.72;;;17.70;99.90;;;;;;6152596;23;20433;-63
2021/09/16 08:13:34;;;;;;;7.22;3.05;;;17.80;99.90;;;;;;6151693;23;20049;-63
2021/09/16 08:15:59;;;;;;;7.85;3.58;;;17.90;99.90;;;;;;6150671;23;20440;-64
2021/09/16 08:18:25;;;;;;;8.13;2.95;;;18.10;99.90;;;;;;6150316;23;20017;-63
2021/09/16 08:20:53;;;;;;;9.68;3.22;;;18.20;99.90;;;;;;6127389;23;20024;-63
2021/09/16 08:23:20;;;;;;;9.05;3.28;;;18.20;99.90;;;;;;6152809;23;20019;-63
2021/09/16 08:25:46;;;;;;;11.57;3.28;;;18.40;99.90;;;;;;6152763;23;20341;-63
2021/09/16 08:28:13;;;;;;;7.32;2.88;;;18.60;99.90;;;;;;6152979;23;20373;-64
2021/09/16 08:30:40;;;;;;;9.02;3.00;;;18.60;99.90;;;;;;6151805;23;20009;-64
2021/09/16 08:33:05;;;;;;;10.77;3.00;;;18.70;99.90;;;;;;6151099;23;20438;-64
2021/09/16 08:35:32;;;;;;;8.45;3.10;;;18.70;99.90;;;;;;6150945;23;20048;-64
2021/09/16 08:37:57;;;;;;;12.02;3.40;;;18.70;99.90;;;;;;6126299;23;20028;-64
2021/09/16 08:40:23;;;;;;;7.70;2.90;;;18.80;99.90;;;;;;6150343;23;20010;-64
2021/09/16 08:42:50;;;;;;;9.23;3.30;;;18.80;99.90;;;;;;6151370;23;20338;-64
2021/09/16 08:45:17;;;;;;;9.70;3.00;;;18.70;99.90;;;;;;6150237;23;20029;-64
2021/09/16 08:47:45;;;;;;;6.97;2.90;;;18.60;99.90;;;;;;6153474;23;20014;-64
2021/09/16 08:50:12;;;;;;;9.55;2.65;;;18.60;99.90;;;;;;6151817;23;20381;-64
2021/09/16 08:52:40;;;;;;;6.85;2.80;;;18.60;99.90;;;;;;6151917;23;20393;-64
2021/09/16 08:55:08;;;;;;;10.35;3.30;;;18.50;99.90;;;;;;6125384;23;20026;-64
2021/09/16 08:57:36;;;;;;;7.95;3.08;;;18.50;99.90;;;;;;6151916;23;20024;-64
2021/09/16 09:00:05;;;;;;;6.72;2.60;;;18.40;99.90;;;;;;6125494;23;20013;-64
2021/09/16 09:02:30;;;;;;;6.93;2.50;;;18.30;99.90;;;;;;6151465;23;20013;-64
2021/09/16 09:04:56;;;;;;;11.15;2.90;;;18.40;99.90;;;;;;6151529;23;20108;-64
2021/09/16 09:07:21;;;;;;;5.85;2.40;;;18.30;99.90;;;;;;6152610;23;20020;-64
2021/09/16 09:09:47;;;;;;;7.10;2.65;;;18.40;99.90;;;;;;6151942;23;20096;-64
2021/09/16 09:12:15;;;;;;;9.57;2.55;;;18.30;99.90;;;;;;6125335;23;20014;-64
2021/09/16 09:14:54;;;;;;;5.53;2.10;;;18.50;99.90;;;;;;6152747;23;20450;-64
2021/09/16 09:17:21;;;;;;;4.32;2.33;;;18.50;99.90;;;;;;6152709;23;20517;-64
2021/09/16 09:19:48;;;;;;;8.00;2.30;;;18.60;99.90;;;;;;6124542;23;20096;-64
2021/09/16 09:22:14;;;;;;;5.95;2.22;;;18.60;99.90;;;;;;6153524;23;20013;-64
2021/09/16 09:24:43;;;;;;;5.80;2.05;;;18.70;99.90;;;;;;6126395;23;20070;-64
2021/09/16 09:27:32;;;;;;;4.65;2.22;;;18.70;99.90;;;;;;6153036;23;20048;-64
2021/09/16 09:30:15;;;;;;;6.97;2.25;;;18.80;99.90;;;;;;6153007;23;20013;-63
2021/09/16 09:32:55;;;;;;;5.85;2.00;;;18.90;99.90;;;;;;6152501;23;20013;-63
2021/09/16 09:35:25;;;;;;;5.25;2.17;;;18.90;99.90;;;;;;6125845;23;20025;-64
2021/09/16 09:37:50;;;;;;;6.03;2.65;;;19.00;99.90;;;;;;6150699;23;20022;-64
2021/09/16 09:40:35;;;;;;;8.70;2.05;;;19.00;99.90;;;;;;6151980;23;20561;-64
2021/09/16 09:43:18;;;;;;;8.68;1.88;;;19.20;99.90;;;;;;6151445;23;20041;-64
2021/09/16 09:46:03;;;;;;;7.00;1.90;;;19.20;99.90;;;;;;6151606;23;20021;-64
2021/09/16 09:48:29;;;;;;;4.38;2.10;;;19.20;99.90;;;;;;6150160;23;20097;-63
2021/09/16 09:50:56;;;;;;;8.35;2.05;;;19.10;99.90;;;;;;6123359;23;20013;-64
2021/09/16 09:53:21;;;;;;;5.05;1.70;;;19.30;99.90;;;;;;6152825;23;20017;-64
2021/09/16 09:55:49;;;;;;;7.50;1.80;;;19.50;99.90;;;;;;6152107;23;20021;-64
2021/09/16 09:58:30;;;;;;;5.35;1.77;;;19.70;99.90;;;;;;6152496;23;20068;-64
2021/09/16 10:00:55;;;;;;;4.60;1.25;;;20.00;99.90;;;;;;6149917;23;20028;-64
2021/09/16 10:03:28;;;;;;;4.63;1.33;;;20.30;99.90;;;;;;6152007;23;20326;-65
2021/09/16 10:06:08;;;;;;;4.78;1.52;;;20.10;99.90;;;;;;6150434;23;20092;-65
2021/09/16 10:08:33;;;;;;;6.00;1.65;;;20.10;99.90;;;;;;6151883;23;20022;-64
2021/09/16 10:10:59;;;;;;;4.22;1.48;;;20.00;99.90;;;;;;6151829;23;20013;-64
2021/09/16 10:13:25;;;;;;;4.47;1.55;;;19.80;99.90;;;;;;6152602;23;20017;-65
2021/09/16 10:15:53;;;;;;;4.13;1.63;;;19.50;99.90;;;;;;6150916;23;20016;-64
2021/09/16 10:18:19;;;;;;;3.10;1.13;;;19.50;99.90;;;;;;6150105;23;20322;-64
2021/09/16 10:20:46;;;;;;;5.00;1.80;;;19.30;99.90;;;;;;6150466;23;20374;-64
2021/09/16 10:23:12;;;;;;;4.38;1.50;;;19.20;99.90;;;;;;6150968;23;20017;-64
2021/09/16 10:25:48;;;;;;;1.77;1.10;;;19.20;99.90;;;;;;6151679;23;20379;-64
2021/09/16 10:28:16;;;;;;;3.72;1.55;;;19.20;99.90;;;;;;6151021;23;20400;-65
2021/09/16 10:30:53;;;;;;;4.18;1.55;;;19.40;99.90;;;;;;6148997;23;20020;-64
2021/09/16 10:33:26;;;;;;;4.30;1.10;;;19.50;99.90;;;;;;6149393;23;20480;-64
2021/09/16 10:35:57;;;;;;;4.05;1.42;;;19.60;99.90;;;;;;6151805;23;20017;-65
2021/09/16 10:38:46;;;;;;;3.97;1.50;;;19.10;99.90;;;;;;6151741;23;20018;-65
2021/09/16 10:41:22;;;;;;;2.50;1.40;;;18.60;99.90;;;;;;6125648;23;20521;-64
2021/09/16 10:43:52;;;;;;;3.88;1.20;;;18.50;99.90;;;;;;6150977;23;20021;-64
2021/09/16 10:46:40;;;;;;;3.95;1.67;;;18.50;99.90;;;;;;6151621;23;20033;-64
2021/09/16 10:49:24;;;;;;;2.78;1.30;;;18.40;99.90;;;;;;6125146;23;20013;-64
2021/09/16 10:52:09;;;;;;;3.03;1.48;;;18.50;99.90;;;;;;6151412;23;20013;-65
2021/09/16 10:54:41;;;;;;;3.65;1.48;;;18.60;99.90;;;;;;6135309;23;20044;-64
2021/09/16 10:57:15;;;;;;;5.15;1.83;;;18.80;99.90;;;;;;6125873;23;20496;-64
2021/09/16 10:59:53;;;;;;;2.53;1.30;;;19.00;99.90;;;;;;6151951;23;20013;-65
2021/09/16 11:02:19;;;;;;;3.50;1.40;;;19.20;99.90;;;;;;6125222;23;20021;-64
2021/09/16 11:04:54;;;;;;;3.63;1.48;;;19.30;99.90;;;;;;6151155;23;20099;-64
2021/09/16 11:07:31;;;;;;;5.05;1.50;;;19.70;99.90;;;;;;6125234;23;20028;-65
2021/09/16 11:10:17;;;;;;;3.92;1.40;;;19.90;99.90;;;;;;6126175;23;20333;-65
2021/09/16 11:12:46;;;;;;;3.35;1.30;;;20.20;99.90;;;;;;6150685;23;20021;-65
2021/09/16 11:15:14;;;;;;;3.40;1.52;;;20.10;99.90;;;;;;6151165;23;20107;-64
2021/09/16 11:17:40;;;;;;;3.47;1.40;;;20.10;99.90;;;;;;6150363;23;20013;-64
2021/09/16 11:20:09;;;;;;;2.97;1.30;;;20.20;99.90;;;;;;6150059;23;20386;-64
2021/09/16 11:22:34;;;;;;;5.07;1.50;;;20.30;99.90;;;;;;6123710;23;20021;-65
2021/09/16 11:25:00;;;;;;;4.72;1.20;;;20.20;99.90;;;;;;6125634;23;20028;-64
2021/09/16 11:27:36;;;;;;;3.72;1.20;;;20.10;99.90;;;;;;6150579;23;20036;-64
2021/09/16 11:30:04;;;;;;;5.65;2.03;;;19.80;99.90;;;;;;6150766;23;20337;-65
2021/09/16 11:32:31;;;;;;;4.68;1.80;;;19.70;99.90;;;;;;6152179;23;20013;-65
2021/09/16 11:35:00;;;;;;;5.75;1.83;;;19.40;99.90;;;;;;6124202;23;20022;-64
2021/09/16 11:37:31;;;;;;;2.35;1.27;;;19.30;99.90;;;;;;6148582;23;20025;-64
2021/09/16 11:40:11;;;;;;;7.80;1.65;;;19.10;99.90;;;;;;6181947;23;20032;-64
2021/09/16 11:42:40;;;;;;;4.15;1.50;;;19.00;99.90;;;;;;6181270;23;20044;-64
2021/09/16 11:45:09;;;;;;;5.90;1.80;;;19.10;99.90;;;;;;6153853;23;20024;-63
2021/09/16 11:47:55;;;;;;;4.22;1.52;;;19.20;99.90;;;;;;6180947;23;20009;-64
2021/09/16 11:50:35;;;;;;;3.97;1.58;;;19.20;99.90;;;;;;6155655;23;20019;-64
2021/09/16 11:53:05;;;;;;;4.90;1.70;;;19.30;99.90;;;;;;6181252;23;20059;-64
2021/09/16 11:55:39;;;;;;;3.83;1.45;;;19.40;99.90;;;;;;6180187;23;20088;-64
2021/09/16 11:58:12;;;;;;;4.50;1.40;;;19.60;99.90;;;;;;6180043;23;20019;-64
2021/09/16 12:00:41;;;;;;;4.93;1.83;;;19.90;99.90;;;;;;6180647;23;20013;-64
2021/09/16 12:03:08;;;;;;;6.60;1.88;;;20.10;99.90;;;;;;6179676;23;20440;-64
2021/09/16 12:06:03;;;;;;;5.00;1.95;;;20.30;99.90;;;;;;6180854;23;20034;-64
2021/09/16 12:08:36;;;;;;;3.50;1.52;;;20.40;99.90;;;;;;6164655;23;20083;-65
2021/09/16 12:11:13;;;;;;;4.35;1.73;;;20.30;99.90;;;;;;6128764;23;20024;-64
2021/09/16 12:13:41;;;;;;;4.25;1.30;;;20.30;99.90;;;;;;6154097;23;20017;-65
2021/09/16 12:16:18;;;;;;;4.10;1.30;;;20.30;99.90;;;;;;6154852;23;20027;-65
2021/09/16 12:18:52;;;;;;;3.53;1.40;;;20.40;99.90;;;;;;6128772;23;20080;-64
2021/09/16 12:21:19;;;;;;;2.63;1.20;;;20.40;99.90;;;;;;6129417;23;20021;-65
2021/09/16 12:23:50;;;;;;;2.05;1.40;;;20.30;99.90;;;;;;6180641;23;20457;-64
2021/09/16 12:26:17;;;;;;;3.35;1.23;;;20.30;99.90;;;;;;6180876;23;20017;-65
2021/09/16 12:29:09;;;;;;;5.57;1.40;;;20.20;99.90;;;;;;6154266;23;20013;-65
2021/09/16 12:31:44;;;;;;;3.15;1.45;;;20.20;99.90;;;;;;6149488;23;20073;-70
2021/09/16 12:34:18;;;;;;;4.72;1.55;;;20.20;99.90;;;;;;6156334;23;20017;-70
2021/09/16 12:36:55;;;;;;;3.70;1.30;;;20.30;99.90;;;;;;6157104;23;20021;-70
2021/09/16 12:39:22;;;;;;;3.80;1.70;;;20.50;99.90;;;;;;6132344;23;20287;-71
2021/09/16 12:42:04;;;;;;;4.40;1.48;;;20.50;99.90;;;;;;6156975;23;20009;-70
2021/09/16 12:44:38;;;;;;;3.50;1.45;;;20.50;99.90;;;;;;6155686;23;20013;-70
2021/09/16 12:47:15;;;;;;;8.45;1.42;;;20.60;99.90;;;;;;6156653;23;20009;-70